Terminal Aerodrome Forecast
Issued by NWS

Home | Current Version | Previous Version | Text Only | Print | Product List | Glossary On
Versions: 1 2 3 4 5 6 7 8 9 10 11 12 13 14 15 16 17
741
FTUS43 KIND 271720
TAFBMG
TAF
KBMG 271720Z 2718/2818 VRB04KT P6SM VCSH SCT030 BKN150
     FM280100 VRB02KT P6SM BKN100
     FM280600 00000KT 3SM BR SCT100
      TEMPO 2808/2812 1SM -RA BR BKN010
     FM281400 VRB04KT P6SM SCT030 BKN200=

USA.gov is the U.S. government's official web portal to all federal, state and local government web resources and services.